sensor_id;sensor_type;location;lat;lon;timestamp;P1;durP1;ratioP1;P2;durP2;ratioP2
9328;SDS011;4703;48.748;19.142;2023-07-20T00:01:51;7.00;;;6.50;;
9328;SDS011;4703;48.748;19.142;2023-07-20T00:04:18;6.90;;;6.30;;
9328;SDS011;4703;48.748;19.142;2023-07-20T00:06:45;7.43;;;6.83;;
9328;SDS011;4703;48.748;19.142;2023-07-20T00:09:13;7.93;;;7.23;;
9328;SDS011;4703;48.748;19.142;2023-07-20T00:11:39;7.73;;;7.03;;
9328;SDS011;4703;48.748;19.142;2023-07-20T00:14:10;9.50;;;8.00;;
9328;SDS011;4703;48.748;19.142;2023-07-20T00:16:37;9.43;;;8.43;;
9328;SDS011;4703;48.748;19.142;2023-07-20T00:19:04;8.27;;;7.40;;
9328;SDS011;4703;48.748;19.142;2023-07-20T00:21:33;8.20;;;7.50;;
9328;SDS011;4703;48.748;19.142;2023-07-20T00:24:00;7.50;;;6.70;;
9328;SDS011;4703;48.748;19.142;2023-07-20T00:26:27;8.03;;;7.23;;
9328;SDS011;4703;48.748;19.142;2023-07-20T00:28:54;7.63;;;7.03;;
9328;SDS011;4703;48.748;19.142;2023-07-20T00:31:21;7.80;;;7.10;;
9328;SDS011;4703;48.748;19.142;2023-07-20T00:33:48;7.40;;;6.80;;
9328;SDS011;4703;48.748;19.142;2023-07-20T00:36:15;8.90;;;7.47;;
9328;SDS011;4703;48.748;19.142;2023-07-20T00:38:42;8.90;;;8.00;;
9328;SDS011;4703;48.748;19.142;2023-07-20T00:41:09;7.50;;;6.80;;
9328;SDS011;4703;48.748;19.142;2023-07-20T00:43:36;7.30;;;6.70;;
9328;SDS011;4703;48.748;19.142;2023-07-20T00:46:03;7.50;;;6.80;;
9328;SDS011;4703;48.748;19.142;2023-07-20T00:48:31;6.50;;;6.00;;
9328;SDS011;4703;48.748;19.142;2023-07-20T00:50:59;7.47;;;6.57;;
9328;SDS011;4703;48.748;19.142;2023-07-20T00:53:28;7.40;;;6.80;;
9328;SDS011;4703;48.748;19.142;2023-07-20T00:55:55;7.10;;;6.40;;
9328;SDS011;4703;48.748;19.142;2023-07-20T00:58:22;7.97;;;7.27;;
9328;SDS011;4703;48.748;19.142;2023-07-20T01:00:50;7.00;;;6.40;;
9328;SDS011;4703;48.748;19.142;2023-07-20T01:03:18;7.47;;;6.87;;
9328;SDS011;4703;48.748;19.142;2023-07-20T01:05:54;7.30;;;6.60;;
9328;SDS011;4703;48.748;19.142;2023-07-20T01:08:40;6.93;;;6.30;;
9328;SDS011;4703;48.748;19.142;2023-07-20T01:14:09;8.20;;;7.37;;
9328;SDS011;4703;48.748;19.142;2023-07-20T01:16:38;6.97;;;6.27;;
9328;SDS011;4703;48.748;19.142;2023-07-20T01:19:05;7.33;;;6.60;;
9328;SDS011;4703;48.748;19.142;2023-07-20T01:22:19;7.40;;;6.90;;
9328;SDS011;4703;48.748;19.142;2023-07-20T01:24:51;7.80;;;7.10;;
9328;SDS011;4703;48.748;19.142;2023-07-20T01:33:42;7.77;;;7.13;;
9328;SDS011;4703;48.748;19.142;2023-07-20T01:36:11;7.37;;;6.53;;
9328;SDS011;4703;48.748;19.142;2023-07-20T01:38:38;6.97;;;6.00;;
9328;SDS011;4703;48.748;19.142;2023-07-20T01:41:05;7.30;;;6.70;;
9328;SDS011;4703;48.748;19.142;2023-07-20T01:43:32;7.07;;;6.10;;
9328;SDS011;4703;48.748;19.142;2023-07-20T01:46:00;7.13;;;6.53;;
9328;SDS011;4703;48.748;19.142;2023-07-20T01:48:27;7.07;;;6.47;;
9328;SDS011;4703;48.748;19.142;2023-07-20T01:50:54;7.30;;;6.57;;
9328;SDS011;4703;48.748;19.142;2023-07-20T01:53:22;7.20;;;6.60;;
9328;SDS011;4703;48.748;19.142;2023-07-20T01:55:49;8.43;;;7.03;;
9328;SDS011;4703;48.748;19.142;2023-07-20T01:58:19;5.70;;;5.30;;
9328;SDS011;4703;48.748;19.142;2023-07-20T02:00:46;7.53;;;6.90;;
9328;SDS011;4703;48.748;19.142;2023-07-20T02:03:13;6.10;;;5.60;;
9328;SDS011;4703;48.748;19.142;2023-07-20T02:05:43;6.60;;;6.10;;
9328;SDS011;4703;48.748;19.142;2023-07-20T02:08:10;7.90;;;7.30;;
9328;SDS011;4703;48.748;19.142;2023-07-20T02:10:37;6.73;;;6.23;;
9328;SDS011;4703;48.748;19.142;2023-07-20T02:13:05;6.63;;;5.93;;
9328;SDS011;4703;48.748;19.142;2023-07-20T02:15:32;6.93;;;6.20;;
9328;SDS011;4703;48.748;19.142;2023-07-20T02:17:59;6.63;;;6.13;;
9328;SDS011;4703;48.748;19.142;2023-07-20T02:20:26;5.80;;;5.40;;
9328;SDS011;4703;48.748;19.142;2023-07-20T02:22:53;8.10;;;6.40;;
9328;SDS011;4703;48.748;19.142;2023-07-20T02:25:22;6.30;;;5.77;;
9328;SDS011;4703;48.748;19.142;2023-07-20T02:27:49;7.03;;;6.50;;
9328;SDS011;4703;48.748;19.142;2023-07-20T02:30:16;6.87;;;6.30;;
9328;SDS011;4703;48.748;19.142;2023-07-20T02:32:44;6.40;;;5.90;;
9328;SDS011;4703;48.748;19.142;2023-07-20T02:35:12;8.13;;;5.83;;
9328;SDS011;4703;48.748;19.142;2023-07-20T02:37:39;6.53;;;5.93;;
9328;SDS011;4703;48.748;19.142;2023-07-20T02:40:06;6.10;;;5.60;;
9328;SDS011;4703;48.748;19.142;2023-07-20T02:42:35;6.43;;;5.80;;
9328;SDS011;4703;48.748;19.142;2023-07-20T02:45:02;6.43;;;5.93;;
9328;SDS011;4703;48.748;19.142;2023-07-20T02:47:30;7.33;;;6.60;;
9328;SDS011;4703;48.748;19.142;2023-07-20T02:49:58;7.13;;;6.30;;
9328;SDS011;4703;48.748;19.142;2023-07-20T02:52:25;8.50;;;6.37;;
9328;SDS011;4703;48.748;19.142;2023-07-20T02:54:52;6.40;;;5.80;;
9328;SDS011;4703;48.748;19.142;2023-07-20T02:57:19;6.37;;;5.63;;
9328;SDS011;4703;48.748;19.142;2023-07-20T02:59:46;6.10;;;5.60;;
9328;SDS011;4703;48.748;19.142;2023-07-20T03:02:13;7.97;;;7.27;;
9328;SDS011;4703;48.748;19.142;2023-07-20T03:04:40;7.77;;;6.37;;
9328;SDS011;4703;48.748;19.142;2023-07-20T03:07:07;6.33;;;5.83;;
9328;SDS011;4703;48.748;19.142;2023-07-20T03:09:34;5.70;;;5.20;;
9328;SDS011;4703;48.748;19.142;2023-07-20T03:12:01;6.60;;;6.10;;
9328;SDS011;4703;48.748;19.142;2023-07-20T03:14:31;6.67;;;6.10;;
9328;SDS011;4703;48.748;19.142;2023-07-20T03:16:58;6.43;;;5.43;;
9328;SDS011;4703;48.748;19.142;2023-07-20T03:19:25;6.57;;;5.93;;
9328;SDS011;4703;48.748;19.142;2023-07-20T03:21:52;6.10;;;5.50;;
9328;SDS011;4703;48.748;19.142;2023-07-20T03:24:19;6.03;;;5.47;;
9328;SDS011;4703;48.748;19.142;2023-07-20T03:26:47;6.40;;;5.47;;
9328;SDS011;4703;48.748;19.142;2023-07-20T03:29:14;5.93;;;5.40;;
9328;SDS011;4703;48.748;19.142;2023-07-20T03:31:42;6.37;;;5.80;;
9328;SDS011;4703;48.748;19.142;2023-07-20T03:34:09;5.53;;;5.13;;
9328;SDS011;4703;48.748;19.142;2023-07-20T03:36:39;7.23;;;5.90;;
9328;SDS011;4703;48.748;19.142;2023-07-20T03:39:06;5.60;;;5.10;;
9328;SDS011;4703;48.748;19.142;2023-07-20T03:41:33;5.80;;;5.20;;
9328;SDS011;4703;48.748;19.142;2023-07-20T03:44:00;6.50;;;5.90;;
9328;SDS011;4703;48.748;19.142;2023-07-20T03:46:27;6.10;;;5.60;;
9328;SDS011;4703;48.748;19.142;2023-07-20T03:48:54;6.40;;;5.90;;
9328;SDS011;4703;48.748;19.142;2023-07-20T03:51:21;5.77;;;5.27;;
9328;SDS011;4703;48.748;19.142;2023-07-20T03:53:48;6.43;;;5.87;;
9328;SDS011;4703;48.748;19.142;2023-07-20T03:56:15;7.20;;;6.10;;
9328;SDS011;4703;48.748;19.142;2023-07-20T03:58:42;6.47;;;5.97;;
9328;SDS011;4703;48.748;19.142;2023-07-20T04:01:09;6.07;;;5.57;;
9328;SDS011;4703;48.748;19.142;2023-07-20T04:03:36;12.40;;;5.90;;
9328;SDS011;4703;48.748;19.142;2023-07-20T04:06:03;5.90;;;5.40;;
9328;SDS011;4703;48.748;19.142;2023-07-20T04:08:30;6.17;;;5.57;;
9328;SDS011;4703;48.748;19.142;2023-07-20T04:10:57;6.10;;;5.50;;
9328;SDS011;4703;48.748;19.142;2023-07-20T04:13:27;6.73;;;6.13;;
9328;SDS011;4703;48.748;19.142;2023-07-20T04:15:54;5.37;;;4.97;;
9328;SDS011;4703;48.748;19.142;2023-07-20T04:18:21;6.43;;;5.30;;
9328;SDS011;4703;48.748;19.142;2023-07-20T04:20:48;5.67;;;5.17;;
9328;SDS011;4703;48.748;19.142;2023-07-20T04:23:16;5.70;;;5.20;;
9328;SDS011;4703;48.748;19.142;2023-07-20T04:25:43;6.33;;;5.83;;
9328;SDS011;4703;48.748;19.142;2023-07-20T04:28:10;6.23;;;5.73;;
9328;SDS011;4703;48.748;19.142;2023-07-20T04:30:38;5.83;;;4.80;;
9328;SDS011;4703;48.748;19.142;2023-07-20T04:33:08;6.00;;;5.40;;
9328;SDS011;4703;48.748;19.142;2023-07-20T04:35:50;5.73;;;5.33;;
9328;SDS011;4703;48.748;19.142;2023-07-20T04:38:20;6.30;;;5.43;;
9328;SDS011;4703;48.748;19.142;2023-07-20T04:40:48;6.07;;;5.17;;
9328;SDS011;4703;48.748;19.142;2023-07-20T04:43:16;6.33;;;5.73;;
9328;SDS011;4703;48.748;19.142;2023-07-20T04:45:44;5.73;;;5.23;;
9328;SDS011;4703;48.748;19.142;2023-07-20T04:48:15;5.93;;;5.33;;
9328;SDS011;4703;48.748;19.142;2023-07-20T04:50:44;5.93;;;5.43;;
9328;SDS011;4703;48.748;19.142;2023-07-20T04:53:12;6.40;;;5.57;;
9328;SDS011;4703;48.748;19.142;2023-07-20T04:55:39;6.57;;;5.87;;
9328;SDS011;4703;48.748;19.142;2023-07-20T04:58:12;6.97;;;6.20;;
9328;SDS011;4703;48.748;19.142;2023-07-20T05:00:40;8.20;;;6.83;;
9328;SDS011;4703;48.748;19.142;2023-07-20T05:03:07;8.80;;;5.63;;
9328;SDS011;4703;48.748;19.142;2023-07-20T05:05:34;6.70;;;6.00;;
9328;SDS011;4703;48.748;19.142;2023-07-20T05:08:01;6.57;;;5.57;;
9328;SDS011;4703;48.748;19.142;2023-07-20T05:10:30;7.43;;;6.10;;
9328;SDS011;4703;48.748;19.142;2023-07-20T05:12:57;9.97;;;6.20;;
9328;SDS011;4703;48.748;19.142;2023-07-20T05:15:24;8.80;;;6.47;;
9328;SDS011;4703;48.748;19.142;2023-07-20T05:17:51;6.30;;;5.27;;
9328;SDS011;4703;48.748;19.142;2023-07-20T05:20:18;9.50;;;6.00;;
9328;SDS011;4703;48.748;19.142;2023-07-20T05:22:46;7.37;;;5.27;;
9328;SDS011;4703;48.748;19.142;2023-07-20T05:25:14;6.17;;;5.40;;
9328;SDS011;4703;48.748;19.142;2023-07-20T05:27:44;6.17;;;5.33;;
9328;SDS011;4703;48.748;19.142;2023-07-20T05:30:12;7.60;;;6.00;;
9328;SDS011;4703;48.748;19.142;2023-07-20T05:32:39;5.93;;;5.40;;
9328;SDS011;4703;48.748;19.142;2023-07-20T05:35:07;6.93;;;5.60;;
9328;SDS011;4703;48.748;19.142;2023-07-20T05:37:35;6.10;;;5.60;;
9328;SDS011;4703;48.748;19.142;2023-07-20T05:40:02;6.57;;;5.97;;
9328;SDS011;4703;48.748;19.142;2023-07-20T05:42:30;6.40;;;5.90;;
9328;SDS011;4703;48.748;19.142;2023-07-20T05:44:57;5.80;;;4.90;;
9328;SDS011;4703;48.748;19.142;2023-07-20T05:47:24;5.77;;;5.30;;
9328;SDS011;4703;48.748;19.142;2023-07-20T05:49:51;7.03;;;5.50;;
9328;SDS011;4703;48.748;19.142;2023-07-20T05:52:18;6.17;;;5.50;;
9328;SDS011;4703;48.748;19.142;2023-07-20T05:54:45;7.00;;;5.77;;
9328;SDS011;4703;48.748;19.142;2023-07-20T05:57:12;6.40;;;5.20;;
9328;SDS011;4703;48.748;19.142;2023-07-20T05:59:39;7.43;;;6.17;;
9328;SDS011;4703;48.748;19.142;2023-07-20T06:02:10;7.43;;;6.80;;
9328;SDS011;4703;48.748;19.142;2023-07-20T06:04:38;6.83;;;6.27;;
9328;SDS011;4703;48.748;19.142;2023-07-20T06:07:06;7.60;;;6.93;;
9328;SDS011;4703;48.748;19.142;2023-07-20T06:09:34;6.80;;;6.20;;
9328;SDS011;4703;48.748;19.142;2023-07-20T06:12:01;7.60;;;7.00;;
9328;SDS011;4703;48.748;19.142;2023-07-20T06:14:28;7.43;;;6.83;;
9328;SDS011;4703;48.748;19.142;2023-07-20T06:16:56;8.20;;;7.40;;
9328;SDS011;4703;48.748;19.142;2023-07-20T06:19:23;26.90;;;21.40;;
9328;SDS011;4703;48.748;19.142;2023-07-20T06:21:50;35.43;;;30.63;;
9328;SDS011;4703;48.748;19.142;2023-07-20T06:24:17;17.70;;;15.07;;
9328;SDS011;4703;48.748;19.142;2023-07-20T06:26:44;9.47;;;8.77;;
9328;SDS011;4703;48.748;19.142;2023-07-20T06:29:11;7.80;;;7.20;;
9328;SDS011;4703;48.748;19.142;2023-07-20T06:31:38;8.43;;;7.60;;
9328;SDS011;4703;48.748;19.142;2023-07-20T06:34:05;7.77;;;7.03;;
9328;SDS011;4703;48.748;19.142;2023-07-20T06:36:32;9.50;;;7.50;;
9328;SDS011;4703;48.748;19.142;2023-07-20T06:38:59;7.90;;;7.20;;
9328;SDS011;4703;48.748;19.142;2023-07-20T06:41:29;7.73;;;7.13;;
9328;SDS011;4703;48.748;19.142;2023-07-20T06:43:59;8.73;;;7.90;;
9328;SDS011;4703;48.748;19.142;2023-07-20T06:46:26;6.47;;;5.97;;
9328;SDS011;4703;48.748;19.142;2023-07-20T06:48:53;6.93;;;6.40;;
9328;SDS011;4703;48.748;19.142;2023-07-20T06:51:24;6.57;;;5.97;;
9328;SDS011;4703;48.748;19.142;2023-07-20T06:53:51;7.47;;;6.23;;
9328;SDS011;4703;48.748;19.142;2023-07-20T06:56:18;5.80;;;5.30;;
9328;SDS011;4703;48.748;19.142;2023-07-20T06:58:49;5.60;;;5.10;;
9328;SDS011;4703;48.748;19.142;2023-07-20T07:01:16;24.27;;;20.10;;
9328;SDS011;4703;48.748;19.142;2023-07-20T07:03:43;19.83;;;16.50;;
9328;SDS011;4703;48.748;19.142;2023-07-20T07:06:11;13.40;;;12.00;;
9328;SDS011;4703;48.748;19.142;2023-07-20T07:08:38;5.67;;;5.17;;
9328;SDS011;4703;48.748;19.142;2023-07-20T07:11:06;5.50;;;4.43;;
9328;SDS011;4703;48.748;19.142;2023-07-20T07:13:33;5.27;;;4.70;;
9328;SDS011;4703;48.748;19.142;2023-07-20T07:16:01;4.80;;;4.40;;
9328;SDS011;4703;48.748;19.142;2023-07-20T07:18:28;4.90;;;4.27;;
9328;SDS011;4703;48.748;19.142;2023-07-20T07:20:56;4.83;;;4.53;;
9328;SDS011;4703;48.748;19.142;2023-07-20T07:23:27;5.10;;;4.57;;
9328;SDS011;4703;48.748;19.142;2023-07-20T07:25:54;4.80;;;4.40;;
9328;SDS011;4703;48.748;19.142;2023-07-20T07:28:22;4.43;;;4.13;;
9328;SDS011;4703;48.748;19.142;2023-07-20T07:30:49;4.50;;;4.07;;
9328;SDS011;4703;48.748;19.142;2023-07-20T07:33:16;5.63;;;5.13;;
9328;SDS011;4703;48.748;19.142;2023-07-20T07:35:43;5.63;;;4.50;;
9328;SDS011;4703;48.748;19.142;2023-07-20T07:38:10;5.73;;;4.60;;
9328;SDS011;4703;48.748;19.142;2023-07-20T07:40:58;5.13;;;4.73;;
9328;SDS011;4703;48.748;19.142;2023-07-20T07:43:25;8.13;;;5.83;;
9328;SDS011;4703;48.748;19.142;2023-07-20T07:45:53;6.80;;;5.23;;
9328;SDS011;4703;48.748;19.142;2023-07-20T07:48:21;4.70;;;4.30;;
9328;SDS011;4703;48.748;19.142;2023-07-20T07:50:48;13.63;;;7.43;;
9328;SDS011;4703;48.748;19.142;2023-07-20T07:53:16;26.90;;;11.50;;
9328;SDS011;4703;48.748;19.142;2023-07-20T07:55:44;18.50;;;8.20;;
9328;SDS011;4703;48.748;19.142;2023-07-20T07:58:11;6.67;;;4.63;;
9328;SDS011;4703;48.748;19.142;2023-07-20T08:00:38;4.77;;;4.03;;
9328;SDS011;4703;48.748;19.142;2023-07-20T08:03:06;4.63;;;4.33;;
9328;SDS011;4703;48.748;19.142;2023-07-20T08:05:33;4.93;;;4.53;;
9328;SDS011;4703;48.748;19.142;2023-07-20T08:08:02;6.90;;;5.10;;
9328;SDS011;4703;48.748;19.142;2023-07-20T08:10:30;5.20;;;4.70;;
9328;SDS011;4703;48.748;19.142;2023-07-20T08:12:57;4.83;;;4.43;;
9328;SDS011;4703;48.748;19.142;2023-07-20T08:15:25;4.90;;;4.53;;
9328;SDS011;4703;48.748;19.142;2023-07-20T08:17:52;5.70;;;5.20;;
9328;SDS011;4703;48.748;19.142;2023-07-20T08:20:19;5.87;;;5.20;;
9328;SDS011;4703;48.748;19.142;2023-07-20T08:22:55;4.93;;;4.63;;
9328;SDS011;4703;48.748;19.142;2023-07-20T08:25:22;6.33;;;5.60;;
9328;SDS011;4703;48.748;19.142;2023-07-20T08:27:49;5.50;;;5.00;;
9328;SDS011;4703;48.748;19.142;2023-07-20T08:30:16;5.30;;;4.90;;
9328;SDS011;4703;48.748;19.142;2023-07-20T08:32:43;5.47;;;4.97;;
9328;SDS011;4703;48.748;19.142;2023-07-20T08:35:11;5.13;;;4.63;;
9328;SDS011;4703;48.748;19.142;2023-07-20T08:37:41;5.43;;;5.00;;
9328;SDS011;4703;48.748;19.142;2023-07-20T08:40:08;6.70;;;6.07;;
9328;SDS011;4703;48.748;19.142;2023-07-20T08:42:37;4.70;;;4.40;;
9328;SDS011;4703;48.748;19.142;2023-07-20T08:45:06;5.57;;;4.90;;
9328;SDS011;4703;48.748;19.142;2023-07-20T08:47:35;5.23;;;4.60;;
9328;SDS011;4703;48.748;19.142;2023-07-20T08:50:05;5.27;;;4.87;;
9328;SDS011;4703;48.748;19.142;2023-07-20T08:52:35;4.97;;;4.10;;
9328;SDS011;4703;48.748;19.142;2023-07-20T08:55:03;6.03;;;5.60;;
9328;SDS011;4703;48.748;19.142;2023-07-20T08:57:31;4.73;;;4.13;;
9328;SDS011;4703;48.748;19.142;2023-07-20T09:00:03;5.00;;;4.50;;
9328;SDS011;4703;48.748;19.142;2023-07-20T09:02:31;5.37;;;4.87;;
9328;SDS011;4703;48.748;19.142;2023-07-20T09:05:02;5.10;;;4.63;;
9328;SDS011;4703;48.748;19.142;2023-07-20T09:07:30;4.83;;;4.43;;
9328;SDS011;4703;48.748;19.142;2023-07-20T09:09:58;4.47;;;4.07;;
9328;SDS011;4703;48.748;19.142;2023-07-20T09:12:25;6.20;;;4.43;;
9328;SDS011;4703;48.748;19.142;2023-07-20T09:14:53;5.57;;;4.30;;
9328;SDS011;4703;48.748;19.142;2023-07-20T09:17:25;4.70;;;4.30;;
9328;SDS011;4703;48.748;19.142;2023-07-20T09:19:55;5.63;;;5.17;;
9328;SDS011;4703;48.748;19.142;2023-07-20T09:22:29;4.33;;;4.00;;
9328;SDS011;4703;48.748;19.142;2023-07-20T09:24:57;4.20;;;3.40;;
9328;SDS011;4703;48.748;19.142;2023-07-20T09:27:35;3.83;;;3.53;;
9328;SDS011;4703;48.748;19.142;2023-07-20T09:30:04;4.90;;;4.50;;
9328;SDS011;4703;48.748;19.142;2023-07-20T09:35:15;4.37;;;3.90;;
9328;SDS011;4703;48.748;19.142;2023-07-20T09:37:49;5.93;;;3.90;;
9328;SDS011;4703;48.748;19.142;2023-07-20T09:40:30;5.03;;;4.13;;
9328;SDS011;4703;48.748;19.142;2023-07-20T09:42:59;4.40;;;4.10;;
9328;SDS011;4703;48.748;19.142;2023-07-20T09:45:30;3.70;;;3.40;;
9328;SDS011;4703;48.748;19.142;2023-07-20T09:48:03;3.93;;;3.70;;
9328;SDS011;4703;48.748;19.142;2023-07-20T09:50:40;5.10;;;3.63;;
9328;SDS011;4703;48.748;19.142;2023-07-20T09:53:10;4.37;;;4.07;;
9328;SDS011;4703;48.748;19.142;2023-07-20T09:55:41;4.30;;;4.00;;
9328;SDS011;4703;48.748;19.142;2023-07-20T09:58:10;3.70;;;3.50;;
9328;SDS011;4703;48.748;19.142;2023-07-20T10:00:38;4.53;;;4.00;;
9328;SDS011;4703;48.748;19.142;2023-07-20T10:03:09;4.40;;;3.97;;
9328;SDS011;4703;48.748;19.142;2023-07-20T10:05:43;3.50;;;3.13;;
9328;SDS011;4703;48.748;19.142;2023-07-20T10:08:14;3.87;;;3.63;;
9328;SDS011;4703;48.748;19.142;2023-07-20T10:10:47;3.10;;;2.90;;
9328;SDS011;4703;48.748;19.142;2023-07-20T10:13:21;4.73;;;4.40;;
9328;SDS011;4703;48.748;19.142;2023-07-20T10:16:01;4.30;;;4.00;;
9328;SDS011;4703;48.748;19.142;2023-07-20T10:21:24;8.30;;;7.70;;
9328;SDS011;4703;48.748;19.142;2023-07-20T10:23:55;3.70;;;3.43;;
9328;SDS011;4703;48.748;19.142;2023-07-20T10:26:24;4.07;;;3.70;;
9328;SDS011;4703;48.748;19.142;2023-07-20T10:28:56;3.73;;;3.43;;
9328;SDS011;4703;48.748;19.142;2023-07-20T10:31:24;4.07;;;3.77;;
9328;SDS011;4703;48.748;19.142;2023-07-20T10:33:56;3.67;;;3.37;;
9328;SDS011;4703;48.748;19.142;2023-07-20T10:36:27;4.03;;;3.60;;
9328;SDS011;4703;48.748;19.142;2023-07-20T10:38:57;2.50;;;2.40;;
9328;SDS011;4703;48.748;19.142;2023-07-20T10:41:34;2.80;;;2.70;;
9328;SDS011;4703;48.748;19.142;2023-07-20T10:44:07;4.13;;;3.83;;
9328;SDS011;4703;48.748;19.142;2023-07-20T10:49:06;4.53;;;3.83;;
9328;SDS011;4703;48.748;19.142;2023-07-20T10:54:54;7.00;;;4.90;;
9328;SDS011;4703;48.748;19.142;2023-07-20T10:56:56;3.63;;;3.43;;
9328;SDS011;4703;48.748;19.142;2023-07-20T11:02:06;5.53;;;4.40;;
9328;SDS011;4703;48.748;19.142;2023-07-20T11:04:38;3.43;;;3.23;;
9328;SDS011;4703;48.748;19.142;2023-07-20T11:07:14;3.90;;;3.60;;
9328;SDS011;4703;48.748;19.142;2023-07-20T11:09:43;2.90;;;2.80;;
9328;SDS011;4703;48.748;19.142;2023-07-20T11:12:15;3.30;;;3.00;;
9328;SDS011;4703;48.748;19.142;2023-07-20T11:14:57;3.47;;;3.20;;
9328;SDS011;4703;48.748;19.142;2023-07-20T11:17:30;3.50;;;3.30;;
9328;SDS011;4703;48.748;19.142;2023-07-20T11:19:59;3.00;;;2.80;;
9328;SDS011;4703;48.748;19.142;2023-07-20T11:22:31;3.30;;;3.10;;
9328;SDS011;4703;48.748;19.142;2023-07-20T11:24:58;3.23;;;2.80;;
9328;SDS011;4703;48.748;19.142;2023-07-20T11:27:25;5.13;;;3.13;;
9328;SDS011;4703;48.748;19.142;2023-07-20T11:29:53;4.53;;;2.63;;
9328;SDS011;4703;48.748;19.142;2023-07-20T11:32:20;4.07;;;3.10;;
9328;SDS011;4703;48.748;19.142;2023-07-20T11:34:49;3.37;;;2.83;;
9328;SDS011;4703;48.748;19.142;2023-07-20T11:37:17;4.90;;;3.00;;
9328;SDS011;4703;48.748;19.142;2023-07-20T11:39:44;3.07;;;2.87;;
9328;SDS011;4703;48.748;19.142;2023-07-20T11:42:13;2.90;;;2.70;;
9328;SDS011;4703;48.748;19.142;2023-07-20T11:45:01;3.20;;;3.00;;
9328;SDS011;4703;48.748;19.142;2023-07-20T11:47:31;2.60;;;2.50;;
9328;SDS011;4703;48.748;19.142;2023-07-20T11:50:02;3.40;;;3.10;;
9328;SDS011;4703;48.748;19.142;2023-07-20T11:52:30;2.47;;;2.27;;
9328;SDS011;4703;48.748;19.142;2023-07-20T11:54:58;2.60;;;2.50;;
9328;SDS011;4703;48.748;19.142;2023-07-20T11:57:25;3.00;;;2.37;;
9328;SDS011;4703;48.748;19.142;2023-07-20T11:59:53;3.10;;;2.90;;
9328;SDS011;4703;48.748;19.142;2023-07-20T12:02:28;2.23;;;2.13;;
9328;SDS011;4703;48.748;19.142;2023-07-20T12:04:55;2.20;;;2.10;;
9328;SDS011;4703;48.748;19.142;2023-07-20T12:07:26;2.80;;;2.60;;
9328;SDS011;4703;48.748;19.142;2023-07-20T12:12:33;2.80;;;2.60;;
9328;SDS011;4703;48.748;19.142;2023-07-20T12:17:53;2.27;;;2.17;;
9328;SDS011;4703;48.748;19.142;2023-07-20T12:23:12;2.80;;;2.57;;
9328;SDS011;4703;48.748;19.142;2023-07-20T12:25:44;3.13;;;2.93;;
9328;SDS011;4703;48.748;19.142;2023-07-20T12:28:13;3.30;;;3.10;;
9328;SDS011;4703;48.748;19.142;2023-07-20T12:30:43;2.50;;;2.30;;
9328;SDS011;4703;48.748;19.142;2023-07-20T12:33:11;3.00;;;2.20;;
9328;SDS011;4703;48.748;19.142;2023-07-20T12:35:42;3.80;;;3.50;;
9328;SDS011;4703;48.748;19.142;2023-07-20T12:38:10;3.27;;;2.70;;
9328;SDS011;4703;48.748;19.142;2023-07-20T12:40:37;2.00;;;1.90;;
9328;SDS011;4703;48.748;19.142;2023-07-20T12:43:04;3.00;;;2.80;;
9328;SDS011;4703;48.748;19.142;2023-07-20T12:45:31;2.73;;;2.53;;
9328;SDS011;4703;48.748;19.142;2023-07-20T12:47:58;2.83;;;2.63;;
9328;SDS011;4703;48.748;19.142;2023-07-20T12:50:26;2.63;;;2.43;;
9328;SDS011;4703;48.748;19.142;2023-07-20T12:52:53;2.97;;;2.67;;
9328;SDS011;4703;48.748;19.142;2023-07-20T12:55:20;3.03;;;2.83;;
9328;SDS011;4703;48.748;19.142;2023-07-20T12:57:47;3.60;;;3.33;;
9328;SDS011;4703;48.748;19.142;2023-07-20T13:00:14;1.97;;;1.83;;
9328;SDS011;4703;48.748;19.142;2023-07-20T13:02:42;2.70;;;2.50;;
9328;SDS011;4703;48.748;19.142;2023-07-20T13:05:10;2.50;;;2.30;;
9328;SDS011;4703;48.748;19.142;2023-07-20T13:07:37;2.63;;;2.43;;
9328;SDS011;4703;48.748;19.142;2023-07-20T13:10:08;2.53;;;2.37;;
9328;SDS011;4703;48.748;19.142;2023-07-20T13:12:37;2.73;;;2.53;;
9328;SDS011;4703;48.748;19.142;2023-07-20T13:15:06;2.73;;;2.53;;
9328;SDS011;4703;48.748;19.142;2023-07-20T13:17:35;4.33;;;2.30;;
9328;SDS011;4703;48.748;19.142;2023-07-20T13:20:05;3.00;;;2.40;;
9328;SDS011;4703;48.748;19.142;2023-07-20T13:22:36;3.80;;;2.77;;
9328;SDS011;4703;48.748;19.142;2023-07-20T13:25:07;2.87;;;2.10;;
9328;SDS011;4703;48.748;19.142;2023-07-20T13:27:36;2.67;;;2.40;;
9328;SDS011;4703;48.748;19.142;2023-07-20T13:30:04;2.33;;;2.13;;
9328;SDS011;4703;48.748;19.142;2023-07-20T13:32:36;2.80;;;2.60;;
9328;SDS011;4703;48.748;19.142;2023-07-20T13:35:06;2.87;;;2.50;;
9328;SDS011;4703;48.748;19.142;2023-07-20T13:37:34;2.80;;;2.60;;
9328;SDS011;4703;48.748;19.142;2023-07-20T13:40:01;2.73;;;2.50;;
9328;SDS011;4703;48.748;19.142;2023-07-20T13:42:29;2.70;;;2.60;;
9328;SDS011;4703;48.748;19.142;2023-07-20T13:44:56;3.37;;;3.17;;
9328;SDS011;4703;48.748;19.142;2023-07-20T13:47:23;2.53;;;2.33;;
9328;SDS011;4703;48.748;19.142;2023-07-20T13:49:50;2.70;;;2.60;;
9328;SDS011;4703;48.748;19.142;2023-07-20T13:52:29;2.57;;;2.47;;
9328;SDS011;4703;48.748;19.142;2023-07-20T13:55:00;2.70;;;2.50;;
9328;SDS011;4703;48.748;19.142;2023-07-20T13:57:30;2.40;;;2.30;;
9328;SDS011;4703;48.748;19.142;2023-07-20T14:00:00;3.13;;;2.93;;
9328;SDS011;4703;48.748;19.142;2023-07-20T14:02:30;2.97;;;2.67;;
9328;SDS011;4703;48.748;19.142;2023-07-20T14:05:01;2.93;;;2.73;;
9328;SDS011;4703;48.748;19.142;2023-07-20T14:07:31;2.17;;;2.07;;
9328;SDS011;4703;48.748;19.142;2023-07-20T14:09:58;2.90;;;2.70;;
9328;SDS011;4703;48.748;19.142;2023-07-20T14:12:28;3.87;;;3.67;;
9328;SDS011;4703;48.748;19.142;2023-07-20T14:14:55;2.47;;;2.27;;
9328;SDS011;4703;48.748;19.142;2023-07-20T14:17:22;3.00;;;2.80;;
9328;SDS011;4703;48.748;19.142;2023-07-20T14:19:50;2.70;;;2.60;;
9328;SDS011;4703;48.748;19.142;2023-07-20T14:22:17;3.03;;;2.83;;
9328;SDS011;4703;48.748;19.142;2023-07-20T14:24:45;2.70;;;2.60;;
9328;SDS011;4703;48.748;19.142;2023-07-20T14:27:12;2.90;;;2.60;;
9328;SDS011;4703;48.748;19.142;2023-07-20T14:29:39;3.03;;;2.80;;
9328;SDS011;4703;48.748;19.142;2023-07-20T14:32:06;2.97;;;2.77;;
9328;SDS011;4703;48.748;19.142;2023-07-20T14:34:33;3.27;;;2.70;;
9328;SDS011;4703;48.748;19.142;2023-07-20T14:37:05;2.80;;;2.60;;
9328;SDS011;4703;48.748;19.142;2023-07-20T14:39:32;3.20;;;3.00;;
9328;SDS011;4703;48.748;19.142;2023-07-20T14:41:59;3.10;;;2.90;;
9328;SDS011;4703;48.748;19.142;2023-07-20T14:44:26;2.93;;;2.73;;
9328;SDS011;4703;48.748;19.142;2023-07-20T14:46:53;3.20;;;3.00;;
9328;SDS011;4703;48.748;19.142;2023-07-20T14:49:38;3.20;;;2.83;;
9328;SDS011;4703;48.748;19.142;2023-07-20T14:52:05;2.87;;;2.77;;
9328;SDS011;4703;48.748;19.142;2023-07-20T14:54:41;2.80;;;2.60;;
9328;SDS011;4703;48.748;19.142;2023-07-20T14:57:08;2.87;;;2.57;;
9328;SDS011;4703;48.748;19.142;2023-07-20T14:59:40;2.93;;;2.73;;
9328;SDS011;4703;48.748;19.142;2023-07-20T15:02:08;2.80;;;2.60;;
9328;SDS011;4703;48.748;19.142;2023-07-20T15:04:35;3.60;;;3.30;;
9328;SDS011;4703;48.748;19.142;2023-07-20T15:07:02;2.90;;;2.73;;
9328;SDS011;4703;48.748;19.142;2023-07-20T15:09:30;3.20;;;3.00;;
9328;SDS011;4703;48.748;19.142;2023-07-20T15:11:57;3.03;;;2.80;;
9328;SDS011;4703;48.748;19.142;2023-07-20T15:14:24;2.93;;;2.73;;
9328;SDS011;4703;48.748;19.142;2023-07-20T15:16:51;3.20;;;3.00;;
9328;SDS011;4703;48.748;19.142;2023-07-20T15:19:18;2.93;;;2.73;;
9328;SDS011;4703;48.748;19.142;2023-07-20T15:21:45;2.97;;;2.77;;
9328;SDS011;4703;48.748;19.142;2023-07-20T15:24:12;3.17;;;2.97;;
9328;SDS011;4703;48.748;19.142;2023-07-20T15:26:39;3.00;;;2.90;;
9328;SDS011;4703;48.748;19.142;2023-07-20T15:29:07;2.87;;;2.67;;
9328;SDS011;4703;48.748;19.142;2023-07-20T15:31:54;3.07;;;2.87;;
9328;SDS011;4703;48.748;19.142;2023-07-20T15:34:24;4.67;;;3.23;;
9328;SDS011;4703;48.748;19.142;2023-07-20T15:36:51;4.50;;;2.80;;
9328;SDS011;4703;48.748;19.142;2023-07-20T15:39:18;3.40;;;3.20;;
9328;SDS011;4703;48.748;19.142;2023-07-20T15:41:47;3.63;;;3.03;;